createdAt,value
2016-12-03T00:00:15.689Z,931.73
2016-12-03T00:01:29.202Z,931.75
2016-12-03T00:02:42.794Z,931.79
2016-12-03T00:03:55.880Z,931.77
2016-12-03T00:05:09.421Z,931.79
2016-12-03T00:06:22.708Z,931.74
2016-12-03T00:07:36.286Z,931.76
2016-12-03T00:08:49.967Z,931.76
2016-12-03T00:10:02.999Z,931.85
2016-12-03T00:11:15.798Z,931.85
2016-12-03T00:12:29.416Z,931.93
2016-12-03T00:13:42.959Z,931.97
2016-12-03T00:14:56.566Z,931.98
2016-12-03T00:16:09.649Z,931.94
2016-12-03T00:17:22.210Z,932.01
2016-12-03T00:18:35.221Z,931.99
2016-12-03T00:19:48.832Z,932.05
2016-12-03T00:21:01.849Z,932.05
2016-12-03T00:22:14.941Z,932.05
2016-12-03T00:23:28.532Z,932.06
2016-12-03T00:25:12.971Z,932.02
2016-12-03T00:26:26.347Z,932.05
2016-12-03T00:27:39.995Z,932
2016-12-03T00:28:53.296Z,932.01
2016-12-03T00:30:06.300Z,932.1
2016-12-03T00:31:19.359Z,932.08
2016-12-03T00:33:04.032Z,932.12
2016-12-03T00:34:17.756Z,932.12
2016-12-03T00:35:31.310Z,932.08
2016-12-03T00:36:44.387Z,932.05
2016-12-03T00:37:57.971Z,931.99
2016-12-03T00:39:11.299Z,932
2016-12-03T00:40:24.326Z,931.97
2016-12-03T00:41:37.961Z,932.02
2016-12-03T00:42:51.623Z,932.01
2016-12-03T00:44:05.261Z,932.04
2016-12-03T00:45:18.262Z,932.03
2016-12-03T00:46:31.869Z,932.05
2016-12-03T00:47:45.460Z,932.08
2016-12-03T00:48:58.510Z,932.12
2016-12-03T00:50:11.535Z,932.13
2016-12-03T00:51:24.620Z,932.12
2016-12-03T00:52:38.175Z,932.1
2016-12-03T00:53:51.784Z,932.13
2016-12-03T00:55:05.171Z,932.13
2016-12-03T00:56:18.207Z,932.1
2016-12-03T00:57:31.803Z,932.13
2016-12-03T00:58:45.371Z,932.14
2016-12-03T00:59:58.934Z,932.12
2016-12-03T01:01:12.537Z,932.14
2016-12-03T01:02:26.097Z,932.11
2016-12-03T01:03:39.116Z,932.09
2016-12-03T01:04:52.688Z,932.07
2016-12-03T01:06:06.259Z,932.08
2016-12-03T01:07:19.945Z,932.07
2016-12-03T01:08:33.563Z,932.09
2016-12-03T01:09:47.219Z,932.11
2016-12-03T01:11:00.813Z,932.11
2016-12-03T01:12:14.454Z,932.12
2016-12-03T01:13:28.066Z,932.09
2016-12-03T01:14:41.689Z,932.13
2016-12-03T01:15:55.326Z,932.13
2016-12-03T01:17:08.899Z,932.11
2016-12-03T01:18:22.445Z,932.11
2016-12-03T01:19:36.042Z,932.09
2016-12-03T01:20:49.582Z,932.11
2016-12-03T01:22:03.154Z,932.07
2016-12-03T01:23:16.713Z,932.07
2016-12-03T01:24:30.306Z,932.06
2016-12-03T01:25:43.876Z,932.01
2016-12-03T01:26:56.979Z,931.94
2016-12-03T01:28:10.040Z,931.88
2016-12-03T01:29:23.089Z,931.84
2016-12-03T01:30:36.186Z,931.83
2016-12-03T01:31:49.264Z,931.83
2016-12-03T01:33:02.806Z,931.8
2016-12-03T01:34:16.437Z,931.84
2016-12-03T01:35:30.069Z,931.82
2016-12-03T01:36:43.333Z,931.85
2016-12-03T01:37:56.883Z,931.84
2016-12-03T01:39:10.569Z,931.82
2016-12-03T01:40:24.187Z,931.86
2016-12-03T01:41:37.743Z,931.83
2016-12-03T01:42:51.329Z,931.85
2016-12-03T01:44:04.969Z,931.84
2016-12-03T01:45:18.555Z,931.89
2016-12-03T01:46:32.089Z,931.85
2016-12-03T01:47:45.676Z,931.89
2016-12-03T01:48:59.305Z,931.87
2016-12-03T01:50:12.316Z,931.87
2016-12-03T01:51:25.974Z,931.85
2016-12-03T01:52:39.612Z,931.84
2016-12-03T01:53:52.631Z,931.86
2016-12-03T01:55:05.134Z,931.89
2016-12-03T01:56:18.733Z,931.88
2016-12-03T01:57:31.795Z,931.88
2016-12-03T01:58:45.365Z,931.88
2016-12-03T01:59:58.500Z,931.88
2016-12-03T02:01:11.743Z,931.89
2016-12-03T02:02:25.380Z,931.92
2016-12-03T02:03:38.919Z,931.86
2016-12-03T02:04:52.593Z,931.84
2016-12-03T02:06:05.929Z,931.8
2016-12-03T02:07:18.734Z,931.79
2016-12-03T02:08:31.821Z,931.8
2016-12-03T02:09:44.478Z,931.79
2016-12-03T02:12:41.847Z,931.66
2016-12-03T02:13:54.924Z,931.6
2016-12-03T02:15:07.627Z,931.59
2016-12-03T02:16:21.200Z,931.53
2016-12-03T02:18:05.898Z,931.55
2016-12-03T02:19:19.541Z,931.53
2016-12-03T02:20:33.111Z,931.51
2016-12-03T02:21:46.738Z,931.5
2016-12-03T02:23:00.312Z,931.46
2016-12-03T02:24:13.968Z,931.45
2016-12-03T02:25:27.000Z,931.39
2016-12-03T02:26:39.537Z,931.41
2016-12-03T02:27:53.127Z,931.4
2016-12-03T02:29:06.223Z,931.38
2016-12-03T02:30:19.766Z,931.39
2016-12-03T02:31:33.372Z,931.38
2016-12-03T02:32:46.426Z,931.37
2016-12-03T02:34:00.002Z,931.38
2016-12-03T02:35:13.065Z,931.3
2016-12-03T02:36:26.119Z,931.29
2016-12-03T02:37:38.323Z,931.26
2016-12-03T02:38:51.925Z,931.25
2016-12-03T02:40:05.456Z,931.23
2016-12-03T02:41:18.460Z,931.24
2016-12-03T02:42:32.021Z,931.22
2016-12-03T02:43:44.555Z,931.2
2016-12-03T02:44:57.668Z,931.16
2016-12-03T02:46:11.328Z,931.09
2016-12-03T02:47:24.368Z,931.08
2016-12-03T02:48:37.668Z,931.06
2016-12-03T02:49:50.732Z,931.02
2016-12-03T02:51:34.943Z,931.03
2016-12-03T02:52:48.049Z,931.05
2016-12-03T02:54:01.616Z,931.05
2016-12-03T02:55:15.225Z,931.02
2016-12-03T02:56:28.566Z,930.96
2016-12-03T02:57:41.908Z,930.92
2016-12-03T02:58:55.484Z,930.89
2016-12-03T03:00:39.659Z,930.87
2016-12-03T03:01:53.259Z,930.87
2016-12-03T03:03:06.853Z,930.86
2016-12-03T03:04:19.390Z,930.86
2016-12-03T03:05:33.018Z,930.84
2016-12-03T03:06:46.103Z,930.82
2016-12-03T03:07:59.762Z,930.79
2016-12-03T03:09:13.396Z,930.78
2016-12-03T03:10:26.409Z,930.8
2016-12-03T03:11:39.956Z,930.81
2016-12-03T03:12:52.680Z,930.81
2016-12-03T03:14:06.261Z,930.82
2016-12-03T03:15:19.003Z,930.81
2016-12-03T03:16:32.065Z,930.79
2016-12-03T03:17:45.687Z,930.8
2016-12-03T03:18:58.941Z,930.81
2016-12-03T03:20:12.580Z,930.82
2016-12-03T03:21:25.748Z,930.79
2016-12-03T03:22:39.355Z,930.78
2016-12-03T03:23:52.611Z,930.77
2016-12-03T03:25:05.176Z,930.73
2016-12-03T03:26:18.736Z,930.7
2016-12-03T03:27:31.760Z,930.67
2016-12-03T03:28:44.884Z,930.66
2016-12-03T03:29:57.981Z,930.65
2016-12-03T03:31:11.308Z,930.63
2016-12-03T03:32:24.886Z,930.7
2016-12-03T03:33:38.884Z,930.68
2016-12-03T03:34:52.445Z,930.71
2016-12-03T03:36:06.103Z,930.74
2016-12-03T03:37:19.714Z,930.75
2016-12-03T03:38:32.770Z,930.73
2016-12-03T03:39:46.389Z,930.76
2016-12-03T03:41:30.826Z,930.74
2016-12-03T03:42:44.378Z,930.68
2016-12-03T03:43:57.997Z,930.64
2016-12-03T03:45:11.952Z,930.6
2016-12-03T03:46:25.535Z,930.55
2016-12-03T03:47:38.868Z,930.58
2016-12-03T03:48:52.481Z,930.53
2016-12-03T03:50:05.574Z,930.56
2016-12-03T03:51:19.147Z,930.54
2016-12-03T03:52:32.268Z,930.56
2016-12-03T03:53:44.997Z,930.54
2016-12-03T03:54:58.595Z,930.49
2016-12-03T03:56:12.156Z,930.39
2016-12-03T03:57:25.518Z,930.37
2016-12-03T03:58:38.896Z,930.3
2016-12-03T03:59:51.626Z,930.26
2016-12-03T04:01:05.302Z,930.23
2016-12-03T04:02:18.859Z,930.24
2016-12-03T04:03:32.495Z,930.29
2016-12-03T04:04:46.070Z,930.27
2016-12-03T04:05:59.665Z,930.23
2016-12-03T04:07:12.722Z,930.22
2016-12-03T04:08:26.258Z,930.17
2016-12-03T04:09:39.869Z,930.18
2016-12-03T04:10:53.434Z,930.14
2016-12-03T04:12:07.076Z,930.16
2016-12-03T04:13:20.737Z,930.17
2016-12-03T04:14:34.295Z,930.16
2016-12-03T04:15:48.088Z,930.15
2016-12-03T04:17:01.718Z,930.16
2016-12-03T04:18:14.994Z,930.12
2016-12-03T04:19:28.536Z,930.11
2016-12-03T04:20:41.762Z,930.11
2016-12-03T04:21:55.343Z,930.13
2016-12-03T04:23:08.919Z,930.1
2016-12-03T04:24:22.412Z,930.1
2016-12-03T04:25:35.965Z,930.11
2016-12-03T04:26:49.536Z,930.08
2016-12-03T04:28:03.067Z,930.03
2016-12-03T04:29:16.655Z,930.04
2016-12-03T04:30:30.284Z,930
2016-12-03T04:31:43.345Z,930.03
2016-12-03T04:32:56.424Z,930.02
2016-12-03T04:34:09.458Z,929.97
2016-12-03T04:35:23.393Z,929.97
2016-12-03T04:36:37.008Z,929.93
2016-12-03T04:37:50.589Z,929.98
2016-12-03T04:39:04.105Z,929.97
2016-12-03T04:40:17.980Z,930
2016-12-03T04:41:31.576Z,930.01
2016-12-03T04:42:45.131Z,929.98
2016-12-03T04:43:58.705Z,930.03
2016-12-03T04:45:12.282Z,930.01
2016-12-03T04:46:25.844Z,930.02
2016-12-03T04:47:38.969Z,930
2016-12-03T04:48:52.542Z,930
2016-12-03T04:50:06.253Z,930.01
2016-12-03T04:51:19.920Z,930.05
2016-12-03T04:52:33.590Z,930.04
2016-12-03T04:53:47.267Z,930.02
2016-12-03T04:55:00.147Z,930.04
2016-12-03T04:56:13.691Z,930.02
2016-12-03T04:57:27.231Z,929.94
2016-12-03T04:58:40.760Z,929.9
2016-12-03T04:59:54.314Z,929.89
2016-12-03T05:01:07.858Z,929.94
2016-12-03T05:02:21.468Z,929.93
2016-12-03T05:03:34.543Z,929.95
2016-12-03T05:04:48.136Z,930.02
2016-12-03T05:06:01.153Z,929.95
2016-12-03T05:07:46.132Z,929.89
2016-12-03T05:08:59.654Z,929.82
2016-12-03T05:10:13.270Z,929.78
2016-12-03T05:11:25.772Z,929.76
2016-12-03T05:12:38.920Z,929.71
2016-12-03T05:13:52.564Z,929.67
2016-12-03T05:15:05.307Z,929.64
2016-12-03T05:16:18.374Z,929.62
2016-12-03T05:17:31.473Z,929.61
2016-12-03T05:18:45.089Z,929.59
2016-12-03T05:19:58.727Z,929.56
2016-12-03T05:21:12.335Z,929.52
2016-12-03T05:22:25.902Z,929.55
2016-12-03T05:23:38.934Z,929.52
2016-12-03T05:24:52.058Z,929.47
2016-12-03T05:26:05.605Z,929.45
2016-12-03T05:27:19.142Z,929.47
2016-12-03T05:28:32.657Z,929.41
2016-12-03T05:29:46.232Z,929.39
2016-12-03T05:30:59.861Z,929.43
2016-12-03T05:32:12.850Z,929.42
2016-12-03T05:33:26.441Z,929.45
2016-12-03T05:34:39.480Z,929.46
2016-12-03T05:35:53.454Z,929.46
2016-12-03T05:37:06.808Z,929.46
2016-12-03T05:38:20.109Z,929.42
2016-12-03T05:39:33.739Z,929.4
2016-12-03T05:40:47.300Z,929.38
2016-12-03T05:42:00.864Z,929.37
2016-12-03T05:43:45.617Z,929.32
2016-12-03T05:44:59.086Z,929.31
2016-12-03T05:46:11.840Z,929.33
2016-12-03T05:47:24.592Z,929.32
2016-12-03T05:48:37.685Z,929.28
2016-12-03T05:51:36.006Z,929.29
2016-12-03T05:52:48.997Z,929.29
2016-12-03T05:54:02.603Z,929.27
2016-12-03T05:55:15.712Z,929.31
2016-12-03T05:56:29.291Z,929.27
2016-12-03T05:57:42.871Z,929.26
2016-12-03T05:58:56.217Z,929.28
2016-12-03T06:00:09.907Z,929.27
2016-12-03T06:01:23.472Z,929.22
2016-12-03T06:02:36.290Z,929.19
2016-12-03T06:03:49.840Z,929.22
2016-12-03T06:05:02.880Z,929.21
2016-12-03T06:06:16.403Z,929.19
2016-12-03T06:07:29.992Z,929.17
2016-12-03T06:08:43.509Z,929.16
2016-12-03T06:09:56.569Z,929.16
2016-12-03T06:11:10.170Z,929.16
2016-12-03T06:12:23.741Z,929.2
2016-12-03T06:13:36.724Z,929.2
2016-12-03T06:14:50.428Z,929.23
2016-12-03T06:16:04.354Z,929.25
2016-12-03T06:17:17.591Z,929.26
2016-12-03T06:18:31.174Z,929.23
2016-12-03T06:19:45.086Z,929.24
2016-12-03T06:20:58.665Z,929.21
2016-12-03T06:22:11.674Z,929.26
2016-12-03T06:23:25.030Z,929.25
2016-12-03T06:24:38.935Z,929.23
2016-12-03T06:25:51.993Z,929.21
2016-12-03T06:27:05.649Z,929.24
2016-12-03T06:28:19.165Z,929.21
2016-12-03T06:29:31.768Z,929.2
2016-12-03T06:30:45.271Z,929.23
2016-12-03T06:31:58.882Z,929.22
2016-12-03T06:33:12.455Z,929.21
2016-12-03T06:34:26.058Z,929.16
2016-12-03T06:35:39.642Z,929.17
2016-12-03T06:36:52.973Z,929.2
2016-12-03T06:38:06.540Z,929.17
2016-12-03T06:39:19.911Z,929.26
2016-12-03T06:40:33.420Z,929.27
2016-12-03T06:41:47.098Z,929.27
2016-12-03T06:43:00.700Z,929.3
2016-12-03T06:44:14.283Z,929.27
2016-12-03T06:45:27.845Z,929.3
2016-12-03T06:46:41.426Z,929.31
2016-12-03T06:47:55.054Z,929.35
2016-12-03T06:49:08.889Z,929.35
2016-12-03T06:50:22.443Z,929.29
2016-12-03T06:51:35.430Z,929.23
2016-12-03T06:52:47.966Z,929.2
2016-12-03T06:54:00.528Z,929.21
2016-12-03T06:55:14.074Z,929.2
2016-12-03T06:56:27.898Z,929.2
2016-12-03T06:57:40.989Z,929.18
2016-12-03T06:58:54.562Z,929.2
2016-12-03T07:00:07.815Z,929.19
2016-12-03T07:01:21.377Z,929.19
2016-12-03T07:02:35.027Z,929.19
2016-12-03T07:03:48.613Z,929.16
2016-12-03T07:05:02.275Z,929.17
2016-12-03T07:06:15.835Z,929.15
2016-12-03T07:07:29.389Z,929.12
2016-12-03T07:08:43.024Z,929.12
2016-12-03T07:09:56.646Z,929.1
2016-12-03T07:11:09.693Z,929.06
2016-12-03T07:12:22.753Z,929.06
2016-12-03T07:13:35.831Z,929.05
2016-12-03T07:14:49.398Z,929.1
2016-12-03T07:16:02.962Z,929.13
2016-12-03T07:17:16.017Z,929.16
2016-12-03T07:18:29.640Z,929.18
2016-12-03T07:19:42.716Z,929.18
2016-12-03T07:20:56.290Z,929.15
2016-12-03T07:22:09.592Z,929.09
2016-12-03T07:23:22.670Z,929.06
2016-12-03T07:24:35.793Z,928.94
2016-12-03T07:25:48.888Z,928.93
2016-12-03T07:27:01.456Z,928.9
2016-12-03T07:28:15.131Z,928.86
2016-12-03T07:29:28.156Z,928.89
2016-12-03T07:30:42.132Z,928.88
2016-12-03T07:31:55.708Z,928.91
2016-12-03T07:33:09.278Z,928.92
2016-12-03T07:34:22.777Z,928.9
2016-12-03T07:35:36.382Z,928.88
2016-12-03T07:36:50.178Z,928.88
2016-12-03T07:38:02.713Z,928.86
2016-12-03T07:39:15.769Z,928.87
2016-12-03T07:40:29.399Z,928.9
2016-12-03T07:41:42.479Z,928.9
2016-12-03T07:42:55.282Z,928.93
2016-12-03T07:44:08.935Z,928.94
2016-12-03T07:45:22.483Z,928.93
2016-12-03T07:46:35.777Z,928.94
2016-12-03T07:47:49.338Z,928.97
2016-12-03T07:49:02.332Z,928.95
2016-12-03T07:50:15.443Z,928.96
2016-12-03T07:51:27.923Z,928.91
2016-12-03T07:54:26.235Z,928.97
2016-12-03T07:55:39.305Z,928.96
2016-12-03T07:56:52.936Z,929.01
2016-12-03T07:58:06.199Z,928.98
2016-12-03T07:59:19.511Z,928.99
2016-12-03T08:00:32.490Z,928.94
2016-12-03T08:01:46.047Z,928.96
2016-12-03T08:02:59.657Z,928.93
2016-12-03T08:04:13.252Z,928.96
2016-12-03T08:05:26.833Z,928.98
2016-12-03T08:06:40.428Z,929
2016-12-03T08:07:54.057Z,929
2016-12-03T08:09:07.835Z,929
2016-12-03T08:10:20.775Z,929.04
2016-12-03T08:11:34.316Z,929.05
2016-12-03T08:12:47.989Z,929
2016-12-03T08:14:01.568Z,929.06
2016-12-03T08:15:15.155Z,929.11
2016-12-03T08:16:28.749Z,929.12
2016-12-03T08:17:42.105Z,929.09
2016-12-03T08:19:08.560Z,929.09
2016-12-03T08:20:21.594Z,929.05
2016-12-03T08:21:35.239Z,929.08
2016-12-03T08:22:48.837Z,929.07
2016-12-03T08:24:01.294Z,929.08
2016-12-03T08:25:13.612Z,929.07
2016-12-03T08:26:27.189Z,929.08
2016-12-03T08:27:40.285Z,929.11
2016-12-03T08:28:53.947Z,929.11
2016-12-03T08:30:07.809Z,929.11
2016-12-03T08:31:21.399Z,929.1
2016-12-03T08:32:35.010Z,929.08
2016-12-03T08:33:48.526Z,929.06
2016-12-03T08:35:02.023Z,929.08
2016-12-03T08:36:14.621Z,929.15
2016-12-03T08:37:27.663Z,929.18
2016-12-03T08:38:40.747Z,929.2
2016-12-03T08:39:54.112Z,929.22
2016-12-03T08:41:07.850Z,929.22
2016-12-03T08:42:21.462Z,929.24
2016-12-03T08:43:35.018Z,929.27
2016-12-03T08:44:48.087Z,929.27
2016-12-03T08:46:01.704Z,929.29
2016-12-03T08:47:15.298Z,929.31
2016-12-03T08:48:28.842Z,929.29
2016-12-03T08:49:42.462Z,929.28
2016-12-03T08:50:55.490Z,929.3
2016-12-03T08:52:08.061Z,929.31
2016-12-03T08:53:21.686Z,929.3
2016-12-03T08:54:35.215Z,929.33
2016-12-03T08:55:48.819Z,929.31
2016-12-03T08:57:02.116Z,929.38
2016-12-03T08:58:15.684Z,929.42
2016-12-03T08:59:28.787Z,929.43
2016-12-03T09:00:42.368Z,929.42
2016-12-03T09:01:55.466Z,929.43
2016-12-03T09:03:08.485Z,929.41
2016-12-03T09:04:22.082Z,929.41
2016-12-03T09:05:35.731Z,929.41
2016-12-03T09:06:49.337Z,929.39
2016-12-03T09:08:02.962Z,929.35
2016-12-03T09:09:16.630Z,929.4
2016-12-03T09:10:30.210Z,929.37
2016-12-03T09:11:43.788Z,929.39
2016-12-03T09:12:57.347Z,929.4
2016-12-03T09:14:10.973Z,929.41
2016-12-03T09:15:24.542Z,929.41
2016-12-03T09:16:37.879Z,929.42
2016-12-03T09:17:51.373Z,929.38
2016-12-03T09:19:04.967Z,929.34
2016-12-03T09:20:18.521Z,929.36
2016-12-03T09:21:32.099Z,929.36
2016-12-03T09:23:16.832Z,929.35
2016-12-03T09:24:30.355Z,929.32
2016-12-03T09:25:43.910Z,929.32
2016-12-03T09:26:57.435Z,929.33
2016-12-03T09:28:11.094Z,929.35
2016-12-03T09:29:24.696Z,929.32
2016-12-03T09:30:37.866Z,929.35
2016-12-03T09:31:51.453Z,929.33
2016-12-03T09:33:05.120Z,929.29
2016-12-03T09:34:18.633Z,929.31
2016-12-03T09:35:32.295Z,929.28
2016-12-03T09:37:17.048Z,929.28
2016-12-03T09:38:30.724Z,929.28
2016-12-03T09:39:43.785Z,929.3
2016-12-03T09:40:56.878Z,929.3
2016-12-03T09:42:10.471Z,929.3
2016-12-03T09:43:24.081Z,929.3
2016-12-03T09:44:37.878Z,929.33
2016-12-03T09:45:51.512Z,929.35
2016-12-03T09:47:05.120Z,929.42
2016-12-03T09:48:18.758Z,929.42
2016-12-03T09:49:32.280Z,929.44
2016-12-03T09:50:45.291Z,929.45
2016-12-03T09:51:58.111Z,929.44
2016-12-03T09:53:11.373Z,929.46
2016-12-03T09:54:24.482Z,929.4
2016-12-03T09:55:37.854Z,929.44
2016-12-03T09:56:51.479Z,929.38
2016-12-03T09:58:05.064Z,929.44
2016-12-03T09:59:18.680Z,929.44
2016-12-03T10:00:31.735Z,929.46
2016-12-03T10:01:45.303Z,929.52
2016-12-03T10:02:58.813Z,929.52
2016-12-03T10:04:12.407Z,929.55
2016-12-03T10:05:25.368Z,929.55
2016-12-03T10:06:39.101Z,929.56
2016-12-03T10:07:52.638Z,929.54
2016-12-03T10:09:05.714Z,929.55
2016-12-03T10:10:19.264Z,929.54
2016-12-03T10:11:32.813Z,929.52
2016-12-03T10:12:45.931Z,929.54
2016-12-03T10:13:59.506Z,929.53
2016-12-03T10:15:13.103Z,929.55
2016-12-03T10:16:26.716Z,929.5
2016-12-03T10:17:39.761Z,929.52
2016-12-03T10:18:53.303Z,929.5
2016-12-03T10:20:06.814Z,929.55
2016-12-03T10:21:19.565Z,929.51
2016-12-03T10:22:33.118Z,929.5
2016-12-03T10:23:46.679Z,929.51
2016-12-03T10:25:00.276Z,929.5
2016-12-03T10:26:13.840Z,929.48
2016-12-03T10:27:26.935Z,929.48
2016-12-03T10:28:40.448Z,929.41
2016-12-03T10:29:54.039Z,929.44
2016-12-03T10:31:07.873Z,929.44
2016-12-03T10:32:21.506Z,929.46
2016-12-03T10:33:34.583Z,929.43
2016-12-03T10:34:47.858Z,929.4
2016-12-03T10:36:01.146Z,929.39
2016-12-03T10:37:14.207Z,929.38
2016-12-03T10:38:27.508Z,929.34
2016-12-03T10:39:41.115Z,929.35
2016-12-03T10:40:54.688Z,929.34
2016-12-03T10:42:08.258Z,929.3
2016-12-03T10:43:21.411Z,929.25
2016-12-03T10:44:35.001Z,929.23
2016-12-03T10:45:48.614Z,929.24
2016-12-03T10:47:02.249Z,929.23
2016-12-03T10:48:15.859Z,929.21
2016-12-03T10:49:28.883Z,929.17
2016-12-03T10:50:41.965Z,929.15
2016-12-03T10:51:55.545Z,929.16
2016-12-03T10:53:09.109Z,929.16
2016-12-03T10:54:21.640Z,929.1
2016-12-03T10:55:35.262Z,929.08
2016-12-03T10:56:48.884Z,929.09
2016-12-03T10:58:01.941Z,929.07
2016-12-03T10:59:15.547Z,929.01
2016-12-03T11:00:29.092Z,929.01
2016-12-03T11:01:42.609Z,928.98
2016-12-03T11:02:55.886Z,929
2016-12-03T11:04:09.476Z,928.94
2016-12-03T11:05:21.904Z,928.99
2016-12-03T11:06:35.415Z,928.92
2016-12-03T11:07:48.456Z,928.91
2016-12-03T11:09:02.021Z,928.89
2016-12-03T11:10:15.593Z,928.92
2016-12-03T11:11:29.252Z,928.92
2016-12-03T11:12:42.845Z,928.87
2016-12-03T11:13:56.464Z,928.89
2016-12-03T11:15:08.931Z,928.84
2016-12-03T11:16:22.547Z,928.8
2016-12-03T11:17:36.138Z,928.82
2016-12-03T11:18:49.418Z,928.75
2016-12-03T11:20:03.023Z,928.76
2016-12-03T11:21:16.102Z,928.71
2016-12-03T11:22:29.641Z,928.74
2016-12-03T11:23:42.596Z,928.72
2016-12-03T11:24:56.177Z,928.71
2016-12-03T11:26:09.782Z,928.71
2016-12-03T11:27:23.403Z,928.7
2016-12-03T11:28:36.392Z,928.66
2016-12-03T11:29:50.024Z,928.63
2016-12-03T11:31:03.050Z,928.58
2016-12-03T11:32:16.376Z,928.6
2016-12-03T11:33:29.350Z,928.63
2016-12-03T11:34:42.913Z,928.59
2016-12-03T11:35:56.410Z,928.59
2016-12-03T11:37:09.488Z,928.62
2016-12-03T11:38:22.869Z,928.61
2016-12-03T11:39:35.940Z,928.71
2016-12-03T11:40:49.518Z,928.67
2016-12-03T11:42:03.140Z,928.61
2016-12-03T11:43:16.766Z,928.61
2016-12-03T11:44:30.297Z,928.64
2016-12-03T11:45:42.834Z,928.65
2016-12-03T11:46:55.912Z,928.64
2016-12-03T11:49:54.255Z,928.69
2016-12-03T11:51:07.364Z,928.7
2016-12-03T11:54:05.076Z,928.63
2016-12-03T11:55:18.414Z,928.61
2016-12-03T11:56:31.541Z,928.63
2016-12-03T11:57:45.268Z,928.6
2016-12-03T11:58:58.831Z,928.63
2016-12-03T12:00:12.360Z,928.7
2016-12-03T12:01:25.968Z,928.67
2016-12-03T12:02:39.363Z,928.69
2016-12-03T12:03:52.394Z,928.68
2016-12-03T12:05:05.895Z,928.69
2016-12-03T12:06:19.474Z,928.68
2016-12-03T12:07:32.005Z,928.66
2016-12-03T12:08:45.103Z,928.64
2016-12-03T12:09:58.169Z,928.61
2016-12-03T12:11:10.883Z,928.67
2016-12-03T12:12:23.395Z,928.6
2016-12-03T12:13:36.135Z,928.63
2016-12-03T12:14:49.715Z,928.71
2016-12-03T12:16:02.252Z,928.67
2016-12-03T12:17:15.401Z,928.72
2016-12-03T12:18:28.405Z,928.72
2016-12-03T12:19:41.436Z,928.77
2016-12-03T12:20:55.042Z,928.66
2016-12-03T12:22:08.087Z,928.8
2016-12-03T12:23:21.738Z,928.75
2016-12-03T12:24:34.850Z,928.78
2016-12-03T12:25:48.376Z,928.79
2016-12-03T12:27:00.909Z,928.72
2016-12-03T12:28:14.606Z,928.68
2016-12-03T12:29:27.636Z,928.68
2016-12-03T12:30:41.208Z,928.76
2016-12-03T12:31:54.697Z,928.8
2016-12-03T12:33:07.880Z,928.79
2016-12-03T12:34:21.528Z,928.72
2016-12-03T12:35:35.107Z,928.73
2016-12-03T12:36:48.136Z,928.75
2016-12-03T12:38:01.736Z,928.72
2016-12-03T12:39:45.909Z,928.75
2016-12-03T12:40:59.448Z,928.78
2016-12-03T12:42:12.988Z,928.76
2016-12-03T12:43:26.014Z,928.82
2016-12-03T12:44:39.531Z,928.76
2016-12-03T12:45:53.087Z,928.77
2016-12-03T12:47:06.161Z,928.75
2016-12-03T12:48:19.751Z,928.72
2016-12-03T12:49:33.314Z,928.77
2016-12-03T12:50:46.855Z,928.8
2016-12-03T12:52:00.421Z,928.83
2016-12-03T12:53:13.419Z,928.74
2016-12-03T12:54:58.050Z,928.74
2016-12-03T12:56:11.654Z,928.71
2016-12-03T12:57:24.172Z,928.79
2016-12-03T12:58:38.062Z,928.68
2016-12-03T12:59:51.578Z,928.76
2016-12-03T13:01:05.150Z,928.8
2016-12-03T13:02:18.202Z,928.79
2016-12-03T13:03:31.463Z,928.7
2016-12-03T13:04:44.211Z,928.74
2016-12-03T13:05:57.293Z,928.74
2016-12-03T13:07:10.299Z,928.74
2016-12-03T13:08:23.809Z,928.76
2016-12-03T13:09:36.306Z,928.69
2016-12-03T13:10:49.360Z,928.65
2016-12-03T13:12:02.816Z,928.74
2016-12-03T13:13:16.435Z,928.57
2016-12-03T13:14:29.414Z,928.58
2016-12-03T13:15:43.040Z,928.54
2016-12-03T13:16:55.491Z,928.65
2016-12-03T13:18:09.145Z,928.61
2016-12-03T13:19:22.758Z,928.67
2016-12-03T13:20:36.326Z,928.71
2016-12-03T13:21:49.431Z,928.62
2016-12-03T13:23:02.982Z,928.57
2016-12-03T13:24:16.018Z,928.61
2016-12-03T13:25:28.974Z,928.62
2016-12-03T13:26:42.554Z,928.51
2016-12-03T13:27:56.190Z,928.52
2016-12-03T13:29:09.239Z,928.47
2016-12-03T13:30:22.787Z,928.39
2016-12-03T13:31:36.454Z,928.42
2016-12-03T13:32:50.058Z,928.39
2016-12-03T13:34:03.155Z,928.4
2016-12-03T13:35:16.762Z,928.42
2016-12-03T13:36:29.819Z,928.28
2016-12-03T13:37:43.335Z,928.31
2016-12-03T13:38:56.927Z,928.29
2016-12-03T13:40:10.456Z,928.29
2016-12-03T13:41:23.975Z,928.37
2016-12-03T13:42:37.056Z,928.37
2016-12-03T13:43:50.630Z,928.26
2016-12-03T13:45:02.567Z,928.25
2016-12-03T13:46:16.152Z,928.22
2016-12-03T13:47:29.208Z,928.33
2016-12-03T13:48:42.773Z,928.28
2016-12-03T13:49:55.850Z,928.24
2016-12-03T13:51:09.423Z,928.2
2016-12-03T13:52:23.007Z,928.11
2016-12-03T13:53:36.546Z,928.12
2016-12-03T13:54:49.563Z,928.15
2016-12-03T13:56:02.873Z,928.02
2016-12-03T13:57:15.893Z,928.07
2016-12-03T13:58:29.416Z,928.04
2016-12-03T13:59:42.756Z,928.06
2016-12-03T14:00:55.767Z,928.15
2016-12-03T14:02:09.322Z,928.04
2016-12-03T14:03:22.899Z,927.93
2016-12-03T14:04:36.469Z,928.09
2016-12-03T14:05:50.038Z,927.86
2016-12-03T14:07:03.587Z,927.82
2016-12-03T14:08:16.609Z,927.84
2016-12-03T14:09:30.171Z,927.72
2016-12-03T14:10:42.711Z,927.74
2016-12-03T14:11:55.753Z,927.71
2016-12-03T14:13:08.792Z,927.67
2016-12-03T14:14:22.354Z,927.7
2016-12-03T14:15:35.923Z,927.68
2016-12-03T14:16:48.475Z,927.67
2016-12-03T14:18:00.995Z,927.75
2016-12-03T14:19:14.628Z,927.69
2016-12-03T14:20:28.137Z,927.6
2016-12-03T14:21:41.691Z,927.63
2016-12-03T14:24:38.731Z,927.7
2016-12-03T14:25:52.274Z,927.69
2016-12-03T14:27:05.844Z,927.51
2016-12-03T14:28:18.852Z,927.57
2016-12-03T14:29:32.403Z,927.52
2016-12-03T14:30:45.461Z,927.54
2016-12-03T14:31:58.507Z,927.56
2016-12-03T14:33:11.539Z,927.68
2016-12-03T14:34:25.079Z,927.58
2016-12-03T14:35:37.645Z,927.56
2016-12-03T14:36:49.870Z,927.55
2016-12-03T14:38:03.413Z,927.66
2016-12-03T14:39:17.015Z,927.66
2016-12-03T14:40:30.623Z,927.57
2016-12-03T14:41:44.150Z,927.4
2016-12-03T14:42:57.749Z,927.58
2016-12-03T14:44:10.891Z,927.65
2016-12-03T14:45:24.049Z,927.5
2016-12-03T14:46:37.601Z,927.42
2016-12-03T14:47:51.462Z,927.48
2016-12-03T14:49:04.550Z,927.4
2016-12-03T14:50:18.278Z,927.39
2016-12-03T14:51:31.790Z,927.41
2016-12-03T14:52:45.552Z,927.36
2016-12-03T14:53:58.623Z,927.35
2016-12-03T14:55:12.197Z,927.36
2016-12-03T14:56:56.899Z,927.38
2016-12-03T14:58:41.543Z,927.32
2016-12-03T14:59:55.197Z,927.27
2016-12-03T15:01:08.747Z,927.37
2016-12-03T15:02:21.350Z,927.35
2016-12-03T15:03:34.500Z,927.36
2016-12-03T15:04:48.247Z,927.35
2016-12-03T15:06:01.311Z,927.26
2016-12-03T15:07:14.327Z,927.3
2016-12-03T15:08:27.995Z,927.18
2016-12-03T15:09:41.570Z,927.14
2016-12-03T15:10:54.968Z,927.09
2016-12-03T15:12:07.533Z,927.04
2016-12-03T15:13:20.056Z,927.02
2016-12-03T15:14:33.093Z,926.94
2016-12-03T15:15:46.706Z,927.18
2016-12-03T15:16:59.817Z,926.93
2016-12-03T15:18:13.416Z,926.92
2016-12-03T15:19:27.024Z,927
2016-12-03T15:20:41.049Z,926.99
2016-12-03T15:21:54.676Z,926.85
2016-12-03T15:23:08.125Z,927
2016-12-03T15:24:21.695Z,926.91
2016-12-03T15:25:35.222Z,926.85
2016-12-03T15:26:48.790Z,926.79
2016-12-03T15:28:02.410Z,926.86
2016-12-03T15:29:15.923Z,926.75
2016-12-03T15:30:29.555Z,926.85
2016-12-03T15:31:43.155Z,926.85
2016-12-03T15:32:56.695Z,926.82
2016-12-03T15:34:10.342Z,926.78
2016-12-03T15:35:23.980Z,926.86
2016-12-03T15:36:37.091Z,926.7
2016-12-03T15:37:50.690Z,926.7